Time;durP1;ratioP1;P1;durP2;ratioP2;P2;SDS_P1;SDS_P2;PMS_P1;PMS_P2;Temp;Humidity;BMP_temperature;BMP_pressure;BME280_temperature;BME280_humidity;BME280_pressure;Samples;Min_cycle;Max_cycle;Signal;HPM_P1;HPM_P2
2023/01/26 00:01:28;;;;;;;47.13;19.58;;;;;;;0.85;47.29;102156.56;5046552;28;20053;-69
2023/01/26 00:03:56;;;;;;;42.67;18.42;;;;;;;0.85;47.03;102161.97;5040251;28;20125;-70
2023/01/26 00:06:26;;;;;;;45.60;17.95;;;;;;;0.86;47.21;102162.84;5045121;28;20099;-70
2023/01/26 00:08:56;;;;;;;44.28;17.83;;;;;;;0.86;47.58;102154.78;5042467;28;20546;-70
2023/01/26 00:11:27;;;;;;;44.40;18.35;;;;;;;0.87;47.35;102145.75;5046392;28;20366;-69
2023/01/26 00:13:57;;;;;;;47.40;18.88;;;;;;;0.85;47.13;102150.34;5047105;28;20501;-69
2023/01/26 00:16:25;;;;;;;42.53;18.42;;;;;;;0.85;47.35;102151.19;5047564;28;20072;-69
2023/01/26 00:18:53;;;;;;;40.75;17.98;;;;;;;0.85;47.32;102144.94;5046206;28;20063;-69
2023/01/26 00:21:23;;;;;;;41.60;18.15;;;;;;;0.86;47.48;102155.66;5047668;28;20046;-70
2023/01/26 00:23:52;;;;;;;44.00;16.85;;;;;;;0.86;47.18;102144.00;5042425;28;20053;-70
2023/01/26 00:26:21;;;;;;;38.67;16.15;;;;;;;0.85;47.19;102139.56;5045563;28;20063;-69
2023/01/26 00:28:51;;;;;;;37.83;17.08;;;;;;;0.85;47.36;102139.56;5040880;28;20466;-70
2023/01/26 00:31:21;;;;;;;36.35;16.42;;;;;;;0.85;47.12;102126.94;5046462;28;20048;-70
2023/01/26 00:33:50;;;;;;;39.47;17.25;;;;;;;0.85;47.33;102128.78;5044055;28;20126;-70
2023/01/26 00:36:18;;;;;;;40.25;17.25;;;;;;;0.85;47.37;102132.31;5047261;28;20102;-70
2023/01/26 00:38:47;;;;;;;41.22;17.27;;;;;;;0.85;47.21;102123.38;5018625;28;20048;-70
2023/01/26 00:43:57;;;;;;;40.72;17.40;;;;;;;0.85;47.46;102113.47;5033561;28;20053;-69
2023/01/26 00:46:25;;;;;;;43.65;18.30;;;;;;;0.85;47.30;102099.13;5048353;28;20041;-69
2023/01/26 00:48:53;;;;;;;43.83;19.23;;;;;;;0.85;47.33;102094.59;5044629;28;20525;-68
2023/01/26 00:51:21;;;;;;;46.47;18.55;;;;;;;0.85;47.41;102088.34;5027496;28;20040;-69
2023/01/26 00:53:49;;;;;;;42.65;18.58;;;;;;;0.85;47.18;102094.59;5037203;28;20118;-70
2023/01/26 00:56:18;;;;;;;43.33;18.23;;;;;;;0.85;47.12;102088.34;5038801;28;20704;-70
2023/01/26 00:58:46;;;;;;;40.15;16.38;;;;;;;0.85;47.01;102070.34;5027867;28;20537;-69
2023/01/26 01:01:15;;;;;;;42.53;18.02;;;;;;;0.86;47.20;102063.13;5047733;28;20048;-70
2023/01/26 01:03:43;;;;;;;38.92;16.48;;;;;;;0.85;47.12;102064.09;5029327;28;20047;-71
2023/01/26 01:06:11;;;;;;;40.33;18.05;;;;;;;0.84;46.99;102065.91;5029909;28;20083;-69
2023/01/26 01:08:39;;;;;;;41.65;17.73;;;;;;;0.84;47.30;102071.28;5041429;28;20096;-69
2023/01/26 01:11:09;;;;;;;41.22;16.75;;;;;;;0.85;47.01;102058.72;5031606;28;20267;-70
2023/01/26 01:13:37;;;;;;;42.20;17.92;;;;;;;0.84;47.13;102059.63;5041935;28;20051;-70
2023/01/26 01:16:07;;;;;;;43.90;18.38;;;;;;;0.85;47.06;102056.00;5044206;28;20044;-70
2023/01/26 01:18:37;;;;;;;45.80;19.35;;;;;;;0.85;47.09;102064.09;5046267;28;20440;-70
2023/01/26 01:21:06;;;;;;;46.97;18.80;;;;;;;0.84;47.21;102057.81;5050006;28;20044;-69
2023/01/26 01:23:34;;;;;;;42.80;18.00;;;;;;;0.83;47.04;102057.84;5028571;28;20045;-69
2023/01/26 01:26:03;;;;;;;44.38;18.60;;;;;;;0.84;47.15;102055.13;5046314;28;20051;-73
2023/01/26 01:28:32;;;;;;;40.35;17.92;;;;;;;0.84;47.20;102056.94;5041260;28;20390;-72
2023/01/26 01:31:00;;;;;;;46.97;20.17;;;;;;;0.85;47.30;102048.78;5030977;28;20037;-72
2023/01/26 01:33:28;;;;;;;42.17;18.75;;;;;;;0.85;47.12;102050.63;5043781;28;20041;-72
2023/01/26 01:35:59;;;;;;;45.40;18.88;;;;;;;0.86;47.35;102053.25;5046267;28;20036;-72
2023/01/26 01:38:27;;;;;;;44.58;17.80;;;;;;;0.86;47.17;102049.66;5027866;28;20064;-73
2023/01/26 01:40:56;;;;;;;41.55;17.90;;;;;;;0.85;47.22;102050.63;5039333;28;20103;-72
2023/01/26 01:43:25;;;;;;;40.97;18.20;;;;;;;0.84;47.27;102044.34;5039843;28;20119;-72
2023/01/26 01:45:53;;;;;;;43.50;18.92;;;;;;;0.85;47.29;102038.00;5029630;28;20048;-72
2023/01/26 01:48:28;;;;;;;40.15;17.80;;;;;;;0.86;47.23;102050.56;5016589;28;20045;-72
2023/01/26 01:51:03;;;;;;;39.42;17.73;;;;;;;0.85;47.34;102053.31;5045293;28;20127;-72
2023/01/26 01:53:35;;;;;;;43.17;18.45;;;;;;;0.85;47.17;102040.69;5048978;28;20053;-72
2023/01/26 01:56:08;;;;;;;44.27;18.33;;;;;;;0.84;47.38;102041.66;5029702;28;20632;-72
2023/01/26 01:58:38;;;;;;;39.38;17.58;;;;;;;0.84;47.47;102043.47;5020714;28;20284;-72
2023/01/26 02:01:07;;;;;;;43.50;17.90;;;;;;;0.85;47.69;102031.75;5047772;28;20108;-72
2023/01/26 02:03:36;;;;;;;42.67;17.85;;;;;;;0.86;47.34;102033.50;5025803;28;20952;-72
2023/01/26 02:06:13;;;;;;;41.75;17.55;;;;;;;0.85;47.83;102024.53;5028689;28;20383;-73
2023/01/26 02:08:45;;;;;;;45.00;19.45;;;;;;;0.85;47.40;102040.69;5039933;28;20722;-72
2023/01/26 02:11:18;;;;;;;45.60;19.23;;;;;;;0.85;47.65;102043.38;5019786;28;20044;-72
2023/01/26 02:13:49;;;;;;;42.58;18.13;;;;;;;0.86;47.60;102036.19;5028160;28;20095;-72
2023/01/26 02:16:17;;;;;;;46.75;19.40;;;;;;;0.85;47.65;102034.44;5043216;28;20045;-72
2023/01/26 02:18:46;;;;;;;44.50;19.58;;;;;;;0.85;47.46;102029.91;5027720;28;20044;-72
2023/01/26 02:21:18;;;;;;;41.90;18.90;;;;;;;0.86;47.46;102028.09;5047810;28;20402;-71
2023/01/26 02:23:56;;;;;;;46.13;18.50;;;;;;;0.85;47.60;102023.66;5037371;28;20072;-72
2023/01/26 02:26:27;;;;;;;42.72;18.13;;;;;;;0.86;47.65;102025.41;5043293;28;20079;-72
2023/01/26 02:28:55;;;;;;;41.42;16.80;;;;;;;0.84;47.65;102013.81;5046212;28;20073;-71
2023/01/26 02:31:24;;;;;;;45.63;17.73;;;;;;;0.84;47.74;102012.00;5044765;28;20509;-72
2023/01/26 02:33:53;;;;;;;41.97;18.63;;;;;;;0.84;47.42;102021.91;5027680;28;20055;-72
2023/01/26 02:36:22;;;;;;;45.28;18.55;;;;;;;0.84;47.63;102021.91;5024061;28;20060;-72
2023/01/26 02:39:04;;;;;;;40.20;17.58;;;;;;;0.85;47.99;102019.13;5022510;28;20055;-72
2023/01/26 02:44:20;;;;;;;39.28;16.65;;;;;;;0.81;47.74;102011.19;5025944;28;20532;-72
2023/01/26 02:46:47;;;;;;;44.42;17.63;;;;;;;0.82;47.70;102019.25;5030265;28;20098;-72
2023/01/26 02:52:04;;;;;;;46.35;16.88;;;;;;;0.79;47.87;102011.22;5023407;28;21046;-72
2023/01/26 02:57:20;;;;;;;38.83;16.63;;;;;;;0.80;47.90;102007.63;5041757;28;20037;-72
2023/01/26 02:59:48;;;;;;;46.60;18.08;;;;;;;0.79;48.05;102004.97;5023792;28;20053;-73
2023/01/26 03:02:16;;;;;;;39.38;16.05;;;;;;;0.79;47.76;102004.97;5044404;28;20041;-72
2023/01/26 03:04:46;;;;;;;38.85;16.48;;;;;;;0.81;47.99;102005.81;5043755;28;20677;-72
2023/01/26 03:07:14;;;;;;;41.05;16.08;;;;;;;0.79;47.93;102000.47;5042012;28;20059;-72
2023/01/26 03:09:42;;;;;;;41.88;17.25;;;;;;;0.79;47.88;102002.25;5041931;28;20055;-72
2023/01/26 03:12:11;;;;;;;45.97;18.92;;;;;;;0.79;47.88;102000.47;5045538;28;20078;-72
2023/01/26 03:14:41;;;;;;;44.17;16.98;;;;;;;0.81;47.93;101995.03;5032436;28;20037;-72
2023/01/26 03:17:09;;;;;;;40.05;16.48;;;;;;;0.79;48.04;101997.75;5045545;28;20079;-72
2023/01/26 03:28:12;;;;;;;37.90;15.38;;;;;;;0.75;48.20;101985.31;5004733;28;20045;-72
2023/01/26 03:30:41;;;;;;;40.15;15.40;;;;;;;0.77;48.10;101977.16;5018036;28;20144;-72
2023/01/26 03:33:10;;;;;;;43.47;17.42;;;;;;;0.76;48.10;101981.69;5048670;28;20049;-72
2023/01/26 03:35:38;;;;;;;40.20;16.92;;;;;;;0.76;48.07;101987.09;5037386;28;20052;-72
2023/01/26 03:38:05;;;;;;;40.65;17.42;;;;;;;0.76;47.99;101987.09;5041185;28;20048;-72
2023/01/26 03:57:20;;;;;;;40.58;15.88;;;;;;;0.72;48.12;101974.63;5038044;28;20059;-72
2023/01/26 03:59:48;;;;;;;42.25;16.10;;;;;;;0.73;48.58;101971.88;5018744;28;20052;-72
2023/01/26 04:10:49;;;;;;;38.75;15.88;;;;;;;0.70;48.28;101971.06;5012863;28;20052;-72
2023/01/26 04:21:41;;;;;;;39.30;15.38;;;;;;;0.70;48.32;101984.53;5043223;28;20041;-72
2023/01/26 04:24:21;;;;;;;37.55;15.32;;;;;;;0.71;48.40;101979.13;5040965;28;20076;-70
2023/01/26 04:26:53;;;;;;;38.45;15.40;;;;;;;0.71;48.48;101978.22;5058192;28;20458;-70
2023/01/26 04:29:28;;;;;;;41.83;16.80;;;;;;;0.72;48.40;101988.09;5037284;28;20044;-70
2023/01/26 04:31:56;;;;;;;42.28;16.45;;;;;;;0.72;48.28;101977.31;5044395;28;20044;-69
2023/01/26 04:34:26;;;;;;;38.05;15.63;;;;;;;0.73;48.39;101974.59;5038434;28;20098;-68
2023/01/26 04:36:54;;;;;;;43.65;16.90;;;;;;;0.74;48.61;101976.34;5041493;28;20128;-68
2023/01/26 04:39:25;;;;;;;38.97;15.52;;;;;;;0.73;48.45;101977.28;5042987;28;20569;-70
2023/01/26 04:41:56;;;;;;;39.08;16.38;;;;;;;0.75;48.54;101963.75;5047089;28;20565;-69
2023/01/26 04:44:23;;;;;;;38.35;15.15;;;;;;;0.77;48.50;101971.78;5041091;28;20501;-69
2023/01/26 04:46:51;;;;;;;35.95;14.60;;;;;;;0.76;48.56;101968.22;5040872;28;20040;-69
2023/01/26 04:49:20;;;;;;;33.97;14.82;;;;;;;0.77;48.64;101969.09;5042742;28;20037;-69
2023/01/26 04:51:49;;;;;;;31.83;13.95;;;;;;;0.77;48.66;101967.28;5057951;28;20033;-70
2023/01/26 04:54:17;;;;;;;34.80;15.75;;;;;;;0.77;48.52;101966.38;5023720;28;20145;-70
2023/01/26 04:56:45;;;;;;;38.17;15.75;;;;;;;0.77;48.67;101959.19;5003088;28;20052;-70
2023/01/26 04:59:14;;;;;;;33.63;14.60;;;;;;;0.79;48.72;101964.53;5014109;28;20055;-69
2023/01/26 05:01:43;;;;;;;39.92;15.57;;;;;;;0.78;48.79;101971.72;5019103;28;20459;-69
2023/01/26 05:04:12;;;;;;;34.97;14.65;;;;;;;0.79;48.56;101961.84;5035359;28;20116;-69
2023/01/26 05:06:43;;;;;;;32.65;13.48;;;;;;;0.77;48.74;101961.88;5043706;28;20036;-70
2023/01/26 05:09:13;;;;;;;40.72;14.93;;;;;;;0.80;48.92;101963.63;5032458;28;20108;-71
2023/01/26 05:11:43;;;;;;;38.28;14.93;;;;;;;0.78;48.83;101962.75;5008752;28;20041;-71
2023/01/26 05:14:10;;;;;;;38.22;14.52;;;;;;;0.78;48.57;101965.47;5034791;28;20052;-70
2023/01/26 05:17:11;;;;;;;36.17;14.57;;;;;;;0.78;48.71;101965.47;5035427;28;20091;-68
2023/01/26 05:19:48;;;;;;;37.63;14.90;;;;;;;0.79;48.72;101967.22;5026380;28;20113;-69
2023/01/26 05:22:34;;;;;;;32.80;13.35;;;;;;;0.79;49.00;101964.53;5028614;28;20111;-68
2023/01/26 05:25:22;;;;;;;32.65;14.48;;;;;;;0.79;48.72;101968.13;5019896;28;20633;-69
2023/01/26 05:28:03;;;;;;;35.65;14.32;;;;;;;0.77;48.82;101966.38;5017870;28;20051;-68
2023/01/26 05:30:31;;;;;;;35.35;14.43;;;;;;;0.79;48.57;101972.63;5026818;28;20050;-69
2023/01/26 05:33:02;;;;;;;37.03;15.45;;;;;;;0.81;48.63;101973.47;5017842;28;20096;-69
2023/01/26 05:35:30;;;;;;;35.85;15.55;;;;;;;0.81;48.80;101973.47;5060630;28;20065;-69
2023/01/26 05:37:58;;;;;;;41.20;16.08;;;;;;;0.81;48.70;101974.34;5042280;28;20053;-69
2023/01/26 05:40:30;;;;;;;36.65;15.43;;;;;;;0.82;48.68;101967.16;5057626;28;20057;-70
2023/01/26 05:42:58;;;;;;;42.08;15.95;;;;;;;0.81;48.87;101971.66;5058623;28;20059;-70
2023/01/26 05:45:44;;;;;;;37.25;15.27;;;;;;;0.80;49.05;101979.78;5047073;28;20083;-69
2023/01/26 05:48:14;;;;;;;39.28;15.65;;;;;;;0.79;48.71;101976.19;5054791;28;20046;-69
2023/01/26 05:50:42;;;;;;;35.75;14.52;;;;;;;0.79;48.87;101973.50;5058918;28;20652;-69
2023/01/26 05:53:18;;;;;;;34.92;13.80;;;;;;;0.80;49.03;101979.78;5034509;28;20088;-69
2023/01/26 05:55:49;;;;;;;36.00;14.02;;;;;;;0.81;49.13;101982.44;5026130;28;20453;-69
2023/01/26 05:58:20;;;;;;;35.10;13.50;;;;;;;0.79;49.13;101981.59;5038382;28;20053;-70
2023/01/26 06:00:48;;;;;;;34.30;12.60;;;;;;;0.81;49.12;101982.44;5020674;28;20037;-69
2023/01/26 06:03:23;;;;;;;36.28;15.00;;;;;;;0.81;49.19;101978.84;5018897;28;20046;-70
2023/01/26 06:05:54;;;;;;;37.78;14.43;;;;;;;0.84;49.37;101976.09;5043204;28;20049;-69
2023/01/26 06:08:31;;;;;;;35.30;14.38;;;;;;;0.83;49.24;101987.78;5039901;28;20103;-69
2023/01/26 06:11:36;;;;;;;33.58;13.65;;;;;;;0.79;49.23;101980.72;5038422;28;20074;-69
2023/01/26 06:14:27;;;;;;;31.05;13.43;;;;;;;0.81;49.00;101989.63;5042586;28;20128;-68
2023/01/26 06:16:55;;;;;;;33.25;13.82;;;;;;;0.83;49.18;101993.19;5039981;28;20053;-67
2023/01/26 06:19:24;;;;;;;31.60;12.68;;;;;;;0.82;49.25;101986.91;5044061;28;20045;-69
2023/01/26 06:21:57;;;;;;;33.90;13.30;;;;;;;0.81;49.39;101993.22;5046051;28;20444;-68
2023/01/26 06:24:25;;;;;;;32.63;13.32;;;;;;;0.83;49.33;101991.38;5053504;28;20052;-67
2023/01/26 06:26:54;;;;;;;30.10;12.52;;;;;;;0.85;49.36;101985.94;5045415;28;20851;-69
2023/01/26 06:29:22;;;;;;;33.65;13.98;;;;;;;0.84;49.11;101976.09;5028077;28;20075;-69
2023/01/26 06:31:50;;;;;;;33.95;13.32;;;;;;;0.85;49.46;101980.56;5054551;28;20069;-70
2023/01/26 06:34:18;;;;;;;32.35;13.55;;;;;;;0.86;49.36;101984.97;5032730;28;20168;-69
2023/01/26 06:36:46;;;;;;;28.98;12.15;;;;;;;0.86;49.37;101982.28;5059251;28;20047;-70
2023/01/26 06:39:22;;;;;;;29.20;12.23;;;;;;;0.85;49.23;101988.63;5040962;28;20052;-70
2023/01/26 06:41:50;;;;;;;29.42;12.57;;;;;;;0.86;49.43;101984.97;5054177;28;20058;-69
2023/01/26 06:44:19;;;;;;;29.48;12.10;;;;;;;0.87;49.39;101986.75;5042054;28;20142;-71
2023/01/26 06:46:48;;;;;;;26.08;11.98;;;;;;;0.86;49.50;101982.28;5058868;28;20045;-70
2023/01/26 06:49:16;;;;;;;29.05;11.90;;;;;;;0.87;49.58;101992.16;5043111;28;20041;-70
2023/01/26 06:51:52;;;;;;;29.98;12.43;;;;;;;0.87;49.70;101984.94;5042933;28;20049;-71
2023/01/26 06:54:20;;;;;;;26.70;11.07;;;;;;;0.86;49.46;101985.88;5043132;28;20073;-71
2023/01/26 06:57:17;;;;;;;27.10;12.60;;;;;;;0.86;49.59;101982.28;5032200;28;20052;-68
2023/01/26 07:00:05;;;;;;;28.67;11.35;;;;;;;0.88;49.84;101994.84;5040279;28;20585;-71
2023/01/26 07:02:52;;;;;;;28.65;11.48;;;;;;;0.86;49.54;101990.38;5045905;28;20060;-70
2023/01/26 07:05:20;;;;;;;26.92;12.15;;;;;;;0.88;49.60;102004.72;5043333;28;20110;-69
2023/01/26 07:07:48;;;;;;;27.85;12.20;;;;;;;0.88;49.65;102000.22;5040422;28;20037;-70
2023/01/26 07:10:16;;;;;;;29.17;12.45;;;;;;;0.89;49.55;102001.09;5039995;28;20151;-72
2023/01/26 07:12:45;;;;;;;30.58;12.35;;;;;;;0.90;49.46;102000.19;5045068;28;20045;-68
2023/01/26 07:15:15;;;;;;;28.38;12.88;;;;;;;0.91;49.64;101996.56;5043446;28;20102;-69
2023/01/26 07:17:42;;;;;;;27.98;11.88;;;;;;;0.90;49.65;102003.75;5038039;28;20052;-69
2023/01/26 07:20:11;;;;;;;29.52;11.93;;;;;;;0.92;49.51;102001.03;5041857;28;20060;-68
2023/01/26 07:22:39;;;;;;;27.38;12.40;;;;;;;0.91;49.71;102000.16;5046321;28;20666;-69
2023/01/26 07:25:08;;;;;;;28.38;11.85;;;;;;;0.92;49.70;102001.03;5034563;28;20049;-68
2023/01/26 07:27:35;;;;;;;28.20;12.82;;;;;;;0.91;49.57;101994.75;5042669;28;20057;-68
2023/01/26 07:30:04;;;;;;;29.67;12.05;;;;;;;0.93;49.73;101997.41;5034159;28;20037;-68
2023/01/26 07:32:33;;;;;;;29.88;12.60;;;;;;;0.93;49.72;101990.19;5040521;28;20050;-68
2023/01/26 07:35:01;;;;;;;27.38;11.82;;;;;;;0.93;49.58;101981.25;5029973;28;20057;-68
2023/01/26 07:37:29;;;;;;;30.95;12.25;;;;;;;0.94;49.73;101982.97;5040769;28;20250;-70
2023/01/26 07:39:57;;;;;;;27.92;12.48;;;;;;;0.95;49.81;101987.44;5030426;28;20072;-69
2023/01/26 07:42:25;;;;;;;29.40;12.38;;;;;;;0.95;49.83;101990.13;5025241;28;20056;-69
2023/01/26 07:45:05;;;;;;;28.55;12.32;;;;;;;0.95;49.72;101992.84;5026007;28;20041;-69
2023/01/26 07:47:36;;;;;;;26.70;12.02;;;;;;;0.96;49.85;101998.19;5027048;28;20045;-69
2023/01/26 07:50:06;;;;;;;28.38;11.77;;;;;;;0.95;49.83;101993.72;5030230;28;20072;-68
2023/01/26 07:52:33;;;;;;;25.83;12.70;;;;;;;0.96;49.86;101995.50;5045655;28;20091;-69
2023/01/26 07:55:01;;;;;;;29.67;12.73;;;;;;;0.97;49.81;102001.78;5038881;28;20041;-69
2023/01/26 07:57:29;;;;;;;29.35;11.93;;;;;;;0.97;49.85;102004.47;5039787;28;20048;-69
2023/01/26 07:59:57;;;;;;;29.45;13.70;;;;;;;0.97;49.63;102005.34;5040674;28;20045;-69
2023/01/26 08:02:25;;;;;;;27.90;12.65;;;;;;;0.97;49.96;102005.34;5042751;28;20055;-69
2023/01/26 08:04:54;;;;;;;29.05;12.18;;;;;;;0.98;49.68;101998.16;5026103;28;20045;-69
2023/01/26 08:07:22;;;;;;;27.50;12.07;;;;;;;0.97;50.04;102002.66;5018687;28;20437;-69
2023/01/26 08:09:50;;;;;;;28.27;12.70;;;;;;;0.99;49.91;102005.31;5034432;28;20637;-69
2023/01/26 08:12:18;;;;;;;29.95;13.63;;;;;;;0.99;49.95;102002.63;5040517;28;20045;-70
2023/01/26 08:14:45;;;;;;;28.65;11.95;;;;;;;1.00;49.98;102009.78;5041467;28;20513;-70
2023/01/26 08:17:16;;;;;;;26.42;12.13;;;;;;;0.99;49.83;101999.91;5039567;28;20052;-69
2023/01/26 08:19:44;;;;;;;29.52;11.63;;;;;;;1.00;49.75;102002.56;5040428;28;20051;-64
2023/01/26 08:22:13;;;;;;;31.15;13.25;;;;;;;1.01;50.04;102000.75;5040841;28;20132;-64
2023/01/26 08:24:41;;;;;;;28.75;12.13;;;;;;;1.01;49.97;102008.84;5043424;28;20106;-68
2023/01/26 08:27:09;;;;;;;30.60;13.88;;;;;;;1.03;50.26;102015.06;5040780;28;20040;-67
2023/01/26 08:29:37;;;;;;;30.30;12.45;;;;;;;1.04;50.12;102014.13;5042517;28;20029;-68
2023/01/26 08:32:07;;;;;;;25.95;12.30;;;;;;;1.06;50.03;102023.06;5043450;28;20478;-68
2023/01/26 08:34:35;;;;;;;28.40;13.45;;;;;;;1.07;50.03;102011.34;5046182;28;20497;-68
2023/01/26 08:37:03;;;;;;;28.67;12.60;;;;;;;1.08;49.97;102015.81;5043161;28;20052;-68
2023/01/26 08:39:32;;;;;;;25.45;12.23;;;;;;;1.10;49.92;102024.72;5038473;28;20042;-68
2023/01/26 08:42:00;;;;;;;26.83;11.63;;;;;;;1.10;50.06;102017.53;5044946;28;20069;-68
2023/01/26 08:44:28;;;;;;;25.50;11.70;;;;;;;1.11;49.96;102019.28;5046018;28;20163;-67
2023/01/26 08:46:56;;;;;;;27.00;11.50;;;;;;;1.12;49.90;102025.56;5049434;28;20414;-69
2023/01/26 08:49:24;;;;;;;28.10;11.60;;;;;;;1.13;49.97;102026.47;5047697;28;20401;-70
2023/01/26 08:51:52;;;;;;;24.80;11.15;;;;;;;1.15;49.79;102019.22;5044676;28;20355;-71
2023/01/26 08:54:19;;;;;;;25.52;11.43;;;;;;;1.15;49.92;102021.91;5046303;28;20441;-71
2023/01/26 08:56:49;;;;;;;24.80;11.13;;;;;;;1.16;49.93;102023.69;5045300;28;20147;-70
2023/01/26 08:59:16;;;;;;;27.08;11.18;;;;;;;1.16;50.01;102027.25;5044288;28;20057;-70
2023/01/26 09:01:44;;;;;;;25.85;11.43;;;;;;;1.16;50.02;102023.69;5042814;28;20064;-70
2023/01/26 09:04:12;;;;;;;25.27;11.57;;;;;;;1.16;49.99;102027.25;5043199;28;20060;-71
2023/01/26 09:06:40;;;;;;;25.35;11.90;;;;;;;1.17;49.99;102031.72;5045631;28;20087;-70
2023/01/26 09:09:12;;;;;;;25.35;10.52;;;;;;;1.18;50.06;102030.78;5042250;28;20217;-70
2023/01/26 09:11:39;;;;;;;23.73;11.52;;;;;;;1.20;49.96;102028.03;5025370;28;20048;-71
2023/01/26 09:14:09;;;;;;;25.65;11.45;;;;;;;1.20;49.87;102037.00;5045624;28;20060;-70
2023/01/26 09:16:37;;;;;;;26.90;11.18;;;;;;;1.20;49.68;102036.13;5039658;28;20359;-73
2023/01/26 09:19:04;;;;;;;26.00;11.27;;;;;;;1.21;49.99;102040.59;5028605;28;20057;-74
2023/01/26 09:21:32;;;;;;;26.77;11.85;;;;;;;1.20;49.94;102037.00;5047506;28;20449;-73
2023/01/26 09:24:01;;;;;;;24.27;11.00;;;;;;;1.20;50.31;102042.41;5044530;28;20048;-73
2023/01/26 09:26:30;;;;;;;25.48;11.35;;;;;;;1.20;49.98;102047.78;5046175;28;20146;-72
2023/01/26 09:28:58;;;;;;;26.60;10.80;;;;;;;1.21;49.99;102043.28;5040460;28;20581;-71
2023/01/26 09:31:27;;;;;;;24.50;10.63;;;;;;;1.21;49.98;102046.00;5037785;28;20040;-71
2023/01/26 09:33:55;;;;;;;23.35;10.82;;;;;;;1.20;49.93;102049.59;5043848;28;20040;-73
2023/01/26 09:36:23;;;;;;;25.98;10.95;;;;;;;1.20;50.03;102052.31;5048484;28;20055;-71
2023/01/26 09:38:52;;;;;;;26.67;11.18;;;;;;;1.21;50.02;102051.38;5036256;28;20037;-71
2023/01/26 09:41:43;;;;;;;26.13;11.93;;;;;;;1.23;50.35;102053.13;5044891;28;20065;-72
2023/01/26 09:44:18;;;;;;;26.75;10.77;;;;;;;1.22;50.09;102048.66;5026715;28;20107;-71
2023/01/26 09:47:01;;;;;;;26.40;11.60;;;;;;;1.23;50.22;102045.03;5042409;28;20510;-71
2023/01/26 09:49:37;;;;;;;28.45;11.82;;;;;;;1.21;50.14;102046.00;5042970;28;20052;-69
2023/01/26 09:52:10;;;;;;;24.90;10.90;;;;;;;1.23;50.12;102047.72;5039447;28;20429;-72
2023/01/26 09:54:41;;;;;;;28.90;11.18;;;;;;;1.24;50.17;102059.41;5045541;28;20106;-71
2023/01/26 09:57:16;;;;;;;27.95;11.98;;;;;;;1.26;50.32;102054.84;5035628;28;20491;-72
2023/01/26 09:59:48;;;;;;;24.95;11.10;;;;;;;1.25;50.26;102051.25;5038548;28;20053;-72
2023/01/26 10:02:29;;;;;;;23.15;10.55;;;;;;;1.25;50.85;102048.56;5045172;28;20128;-69
2023/01/26 10:05:01;;;;;;;26.70;11.32;;;;;;;1.27;50.61;102045.78;5040618;28;20490;-69
2023/01/26 10:07:29;;;;;;;26.42;11.10;;;;;;;1.25;50.17;102036.91;5046704;28;20099;-73
2023/01/26 10:09:57;;;;;;;25.17;11.10;;;;;;;1.28;50.21;102034.09;5040819;28;20047;-71
2023/01/26 10:12:30;;;;;;;25.55;12.30;;;;;;;1.29;50.46;102030.47;5048437;28;20084;-72
2023/01/26 10:15:02;;;;;;;25.33;11.98;;;;;;;1.30;50.37;102040.31;5047141;28;20060;-72
2023/01/26 10:17:35;;;;;;;26.03;11.53;;;;;;;1.29;50.42;102031.34;5045766;28;20041;-71
2023/01/26 10:20:06;;;;;;;;;;;;;;;1.07;51.12;102028.41;5028518;28;20044;-70
2023/01/26 10:22:43;;;;;;;23.70;9.40;;;;;;;1.28;50.70;102023.28;5048189;28;19974;-70
2023/01/26 10:25:17;;;;;;;29.85;11.25;;;;;;;1.30;50.47;102022.31;5047220;28;20049;-70
2023/01/26 10:27:45;;;;;;;24.15;10.38;;;;;;;1.29;50.04;102020.56;5044910;28;20051;-70
2023/01/26 10:30:15;;;;;;;24.95;10.48;;;;;;;1.31;50.34;102024.09;5047038;28;20053;-70
2023/01/26 10:32:46;;;;;;;25.55;10.48;;;;;;;1.32;50.30;102030.38;5046602;28;20148;-70
2023/01/26 10:35:18;;;;;;;26.00;11.30;;;;;;;1.31;50.56;102026.78;5045897;28;20067;-71
2023/01/26 10:37:47;;;;;;;26.73;11.00;;;;;;;1.30;50.42;102019.63;5035321;28;20121;-70
2023/01/26 10:40:16;;;;;;;25.15;10.50;;;;;;;1.32;50.40;102011.50;5039637;28;20056;-70
2023/01/26 10:42:55;;;;;;;25.15;10.85;;;;;;;1.35;50.78;102008.69;5043977;28;20049;-70
2023/01/26 10:45:29;;;;;;;27.55;10.93;;;;;;;1.35;50.65;102014.06;5037535;28;20177;-70
2023/01/26 10:48:16;;;;;;;23.63;10.55;;;;;;;1.36;50.94;102014.03;5034735;28;20478;-69
2023/01/26 10:50:44;;;;;;;22.45;10.43;;;;;;;1.33;50.40;102016.84;5050846;28;20094;-68
2023/01/26 10:53:17;;;;;;;24.52;10.45;;;;;;;1.37;50.84;102017.63;5044298;28;20548;-68
2023/01/26 10:55:58;;;;;;;23.17;10.13;;;;;;;1.38;50.93;102003.22;5046377;28;20041;-69
2023/01/26 10:58:43;;;;;;;26.83;11.10;;;;;;;1.38;50.93;102005.91;5045242;28;20119;-69
2023/01/26 11:01:14;;;;;;;25.73;10.60;;;;;;;1.35;50.33;102006.88;5041457;28;20053;-69
2023/01/26 11:04:00;;;;;;;24.73;11.80;;;;;;;1.38;51.02;102009.50;5046074;28;20068;-69
2023/01/26 11:06:29;;;;;;;22.55;10.43;;;;;;;1.37;50.48;102009.53;5047505;28;20091;-69
2023/01/26 11:09:10;;;;;;;26.50;10.77;;;;;;;1.38;51.31;102004.09;5034834;28;20041;-69
2023/01/26 11:11:41;;;;;;;24.65;10.65;;;;;;;1.37;50.62;102001.44;5040479;28;20109;-69
2023/01/26 11:14:11;;;;;;;26.23;10.77;;;;;;;1.39;50.60;101999.59;5040416;28;20114;-69
2023/01/26 11:16:41;;;;;;;23.17;10.30;;;;;;;1.40;50.60;101994.16;5047270;28;20258;-68
2023/01/26 11:19:14;;;;;;;23.85;10.95;;;;;;;1.40;50.74;101988.75;5043160;28;20036;-69
2023/01/26 11:21:46;;;;;;;25.07;9.40;;;;;;;1.39;50.71;101986.97;5041615;28;20051;-69
2023/01/26 11:24:20;;;;;;;21.20;9.38;;;;;;;1.40;50.76;101987.88;5010627;28;20718;-69
2023/01/26 11:27:12;;;;;;;20.08;8.98;;;;;;;1.42;51.36;101984.16;5040448;28;20043;-68
2023/01/26 11:29:53;;;;;;;19.23;8.90;;;;;;;1.42;51.19;101986.00;5047498;28;20119;-69
2023/01/26 11:32:30;;;;;;;22.30;9.65;;;;;;;1.42;51.04;101984.16;5047737;28;20095;-68
2023/01/26 11:35:12;;;;;;;21.17;8.48;;;;;;;1.45;51.40;101985.91;5044831;28;20052;-68
2023/01/26 11:37:45;;;;;;;20.20;9.07;;;;;;;1.41;51.18;101985.13;5043386;28;20045;-69
2023/01/26 11:40:37;;;;;;;22.20;9.23;;;;;;;1.46;51.47;101987.66;5046063;28;20060;-70
2023/01/26 11:43:34;;;;;;;21.27;9.30;;;;;;;1.45;51.41;101984.09;5042962;28;20053;-73
2023/01/26 11:46:25;;;;;;;20.45;8.98;;;;;;;1.46;51.50;101985.84;5025907;28;20136;-70
2023/01/26 11:49:08;;;;;;;17.75;7.90;;;;;;;1.49;51.48;101995.69;5045928;28;20132;-70
2023/01/26 11:51:47;;;;;;;19.40;8.93;;;;;;;1.49;51.33;101996.56;5037924;28;20079;-69
2023/01/26 11:54:29;;;;;;;19.60;8.15;;;;;;;1.52;51.23;101991.97;5033596;28;20449;-70
2023/01/26 11:57:08;;;;;;;17.63;8.13;;;;;;;1.52;51.28;101987.47;5038567;28;20071;-69
2023/01/26 11:59:41;;;;;;;21.13;9.02;;;;;;;1.54;51.21;101984.72;5038928;28;20052;-70
2023/01/26 12:02:24;;;;;;;18.70;8.68;;;;;;;1.57;51.54;101984.63;5033012;28;20422;-69
2023/01/26 12:04:57;;;;;;;19.75;8.73;;;;;;;1.55;50.88;101976.59;5029851;28;20081;-69
2023/01/26 12:07:30;;;;;;;19.05;8.63;;;;;;;1.58;51.06;101981.00;5045428;28;20044;-69
2023/01/26 12:10:00;;;;;;;18.45;8.40;;;;;;;1.57;50.99;101980.13;5042931;28;20045;-68
2023/01/26 12:12:36;;;;;;;16.73;7.88;;;;;;;1.61;51.08;101964.69;5050363;28;20557;-69
2023/01/26 12:15:13;;;;;;;16.05;7.88;;;;;;;1.62;51.20;101961.97;5049648;28;20053;-69
2023/01/26 12:17:51;;;;;;;14.23;7.03;;;;;;;1.62;51.31;101955.69;5049624;28;20037;-69
2023/01/26 12:20:27;;;;;;;13.73;6.45;;;;;;;1.63;51.35;101949.34;5036392;28;20118;-69
2023/01/26 12:23:03;;;;;;;13.73;6.78;;;;;;;1.63;51.30;101950.22;5051074;28;20052;-69
2023/01/26 12:25:34;;;;;;;12.23;6.40;;;;;;;1.64;51.14;101949.31;5036448;28;20144;-69
2023/01/26 12:28:16;;;;;;;14.48;6.53;;;;;;;1.66;51.54;101942.03;5039618;28;20521;-69
2023/01/26 12:30:52;;;;;;;14.40;6.38;;;;;;;1.65;51.54;101934.88;5050424;28;20115;-68
2023/01/26 12:33:20;;;;;;;14.02;6.75;;;;;;;1.65;51.02;101929.47;5044369;28;20056;-70